Decoded Metar for EPKK (KRAKOW in POLAND) (IATA:KRK) | Meteo·Mobile Aviation Weather
aviador You're here:

EPKK Decoded Metar

KRAKOW in POLAND
Report Time2018-11-12 18:00:00
UTC Time2018-11-12 18:33:53
Flight Rules mvfr MVFR
WindVRB at 02 kt
Visibility5000 m
Phenomena:Mist
Clouds:N/A
Expected CloudBase > 400 ft AGL from Temp-Dew spread
CeilingNone
Temp06°C (ISA -7)
Dew Point05°C (93% RH)
AAT4.1°C
QNH1023 hPa
Density Alt-338 ft
Elevation778 ft
Report Wrong Elevation
Raw Report
EPKK 121800Z VRB02KT 5000 BR NSC 06/05 Q1023=

Extra information for EPKK:More info

Metar Taf Metar & Taf Last 4 Metars F.Rules Stats Wind Profile Meteogram Temp Stats Airport Information Weather charts Add Link Nearby VenuesMetar ALERT Operation Metar Decoded Social comments